ADDS METAR Data INFO
IDs: Format: Raw Decoded Include TAF

Data at: 0226 UTC 22 Jul 2017

KDKR 220210Z AUTO 16007KT 10SM SCT001 29/21 A2998 RMK AO2
KDKR 220150Z AUTO 00000KT 10SM FEW001 29/22 A2998 RMK AO2
KDKR 220130Z AUTO 00000KT 10SM BKN001 30/22 A2997 RMK AO2
KDKR 220110Z AUTO 00000KT 10SM OVC001 30/24 A2997 RMK AO2
KDKR 220050Z AUTO 00000KT 10SM OVC001 30/26 A2996 RMK AO2
KDKR 220030Z AUTO 00000KT 10SM OVC001 32/25 A2996 RMK AO2
KDKR 220010Z AUTO 00000KT 10SM OVC001 32/24 A2996 RMK AO2
KDKR 212350Z AUTO 00000KT 10SM OVC001 32/24 A2996 RMK AO2
KDKR 212330Z AUTO 00000KT 10SM BKN001 OVC070 32/24 A2996 RMK AO2
KDKR 212310Z AUTO 00000KT 10SM BKN001 OVC060 33/23 A2997 RMK AO2
KDKR 212250Z AUTO 00000KT 10SM OVC001 32/23 A2997 RMK AO2
KDKR 212230Z AUTO 21007KT 10SM SCT001 BKN055 33/24 A2997 RMK AO2
KDKR 212210Z AUTO 00000KT 10SM FEW055 34/23 A2997 RMK AO2
KDKR 212150Z AUTO 17004KT 10SM CLR 34/23 A2997 RMK AO2
KDKR 212130Z AUTO 00000KT 10SM FEW001 35/23 A2998 RMK AO2
KDKR 212110Z AUTO 00000KT 10SM CLR 34/23 A2999 RMK AO2
KDKR 212050Z AUTO 00000KT 10SM CLR 34/23 A3000 RMK AO2
KDKR 212030Z AUTO 00000KT 10SM FEW055 34/23 A3001 RMK AO2
KDKR 212010Z AUTO 00000KT 10SM FEW041 FEW055 34/23 A3001 RMK AO2
KDKR 211950Z AUTO 00000KT 10SM FEW001 34/23 A3002 RMK AO2
KDKR 211930Z AUTO 00000KT 10SM SCT001 BKN016 33/24 A3003 RMK AO2
KDKR 211910Z AUTO 00000KT 10SM SCT001 BKN016 33/23 A3003 RMK AO2
KDKR 211850Z AUTO 00000KT 10SM BKN001 BKN016 33/23 A3004 RMK AO2
KDKR 211830Z AUTO 00000KT 10SM BKN001 33/24 A3005 RMK AO2
KDKR 211810Z AUTO 22004KT 10SM BKN001 33/23 A3006 RMK AO2
KDKR 211750Z AUTO 25003KT 10SM SCT001 33/24 A3006 RMK AO2
KDKR 211730Z AUTO 22004KT 10SM FEW001 FEW055 32/24 A3007 RMK AO2
KDKR 211710Z AUTO 00000KT 10SM CLR 32/23 A3007 RMK AO2
KDKR 211650Z AUTO 00000KT 10SM FEW046 31/23 A3007 RMK AO2
KDKR 211630Z AUTO 00000KT 10SM FEW001 FEW055 FEW080 31/24 A3007 RMK AO2
KDKR 211610Z AUTO 00000KT 10SM FEW001 FEW050 31/23 A3008 RMK AO2
KDKR 211550Z AUTO 00000KT 10SM FEW001 FEW028 SCT045 30/24 A3008 RMK AO2
KDKR 211530Z AUTO 00000KT 10SM CLR 30/25 A3008 RMK AO2
KDKR 211510Z AUTO 00000KT 10SM FEW001 29/25 A3008 RMK AO2
KDKR 211450Z AUTO 00000KT 10SM FEW001 29/25 A3009 RMK AO2
KDKR 211430Z AUTO 00000KT 10SM FEW001 FEW065 29/25 A3009 RMK AO2
KDKR 211410Z AUTO 00000KT 10SM CLR 28/25 A3009 RMK AO2
KDKR 211350Z AUTO 00000KT 10SM CLR 27/25 A3010 RMK AO2
KDKR 211330Z AUTO 00000KT 10SM CLR 26/24 A3010 RMK AO2
KDKR 211310Z AUTO 00000KT 10SM CLR 25/24 A3009 RMK AO2
KDKR 211250Z AUTO 00000KT 10SM CLR 24/24 A3009 RMK AO2
KDKR 211230Z AUTO 00000KT 10SM CLR 24/23 A3009 RMK AO2
KDKR 211210Z AUTO 00000KT 10SM CLR 23/23 A3008 RMK AO2
KDKR 211150Z AUTO 00000KT 8SM CLR 23/23 A3007 RMK AO2
KDKR 211130Z AUTO 00000KT 10SM CLR 23/23 A3007 RMK AO2
KDKR 211110Z AUTO 00000KT 10SM CLR 23/23 A3006 RMK AO2
KDKR 211050Z AUTO 00000KT 10SM CLR 23/22 A3006 RMK AO2
KDKR 211030Z AUTO 00000KT 10SM CLR 23/23 A3005 RMK AO2
KDKR 211010Z AUTO 00000KT 10SM CLR 23/23 A3005 RMK AO2
KDKR 210950Z AUTO 00000KT 10SM CLR 23/23 A3005 RMK AO2
KDKR 210930Z AUTO 00000KT 10SM CLR 24/23 A3005 RMK AO2
KDKR 210910Z AUTO 00000KT 10SM CLR 24/23 A3005 RMK AO2
KDKR 210850Z AUTO 00000KT 9SM CLR 24/23 A3005 RMK AO2
KDKR 210830Z AUTO 00000KT 10SM CLR 24/23 A3005 RMK AO2
KDKR 210810Z AUTO 00000KT 10SM CLR 24/23 A3005 RMK AO2
KDKR 210750Z AUTO 00000KT 10SM CLR 24/23 A3005 RMK AO2
KDKR 210730Z AUTO 00000KT 10SM CLR 24/23 A3005 RMK AO2
KDKR 210710Z AUTO 00000KT 10SM CLR 24/23 A3006 RMK AO2
KDKR 210650Z AUTO 00000KT 10SM CLR 25/23 A3006 RMK AO2
KDKR 210630Z AUTO 00000KT 10SM CLR 25/23 A3006 RMK AO2
KDKR 210610Z AUTO 00000KT 10SM 25/23 A3006 RMK AO2
KDKR 210550Z AUTO 00000KT 10SM CLR 25/23 A3006 RMK AO2
KDKR 210530Z AUTO 00000KT 10SM CLR 25/23 A3007 RMK AO2
KDKR 210510Z AUTO 00000KT 10SM CLR 25/23 A3007 RMK AO2
KDKR 210450Z AUTO 00000KT 10SM CLR 26/23 A3006 RMK AO2
KDKR 210430Z AUTO 00000KT 10SM CLR 26/23 A3006 RMK AO2
KDKR 210410Z AUTO 00000KT 10SM CLR 27/23 A3007 RMK AO2
KDKR 210350Z AUTO 00000KT 10SM CLR 26/23 A3006 RMK AO2
KDKR 210330Z AUTO 00000KT 10SM CLR 26/23 A3006 RMK AO2
KDKR 210310Z AUTO 00000KT 10SM CLR 26/24 A3005 RMK AO2
KDKR 210250Z AUTO 00000KT 10SM CLR 27/24 A3005 RMK AO2
KDKR 210230Z AUTO 00000KT 10SM CLR 27/24 A3004 RMK AO2
KDKR 210210Z AUTO 00000KT 10SM CLR 27/25 A3004 RMK AO2
KDKR 210150Z AUTO 00000KT 10SM CLR 27/25 A3004 RMK AO2
KDKR 210130Z AUTO 00000KT 10SM CLR 27/25 A3003 RMK AO2
KDKR 210110Z AUTO 00000KT 10SM CLR 28/25 A3003 RMK AO2
KDKR 210050Z AUTO 00000KT 10SM CLR 29/25 A3003 RMK AO2
KDKR 210030Z AUTO 00000KT 10SM CLR 31/25 A3003 RMK AO2
KDKR 210010Z AUTO 00000KT 10SM FEW060 30/24 A3003 RMK AO2
KDKR 202350Z AUTO 00000KT 10SM BKN060 31/24 A3003 RMK AO2
KDKR 202330Z AUTO 00000KT 10SM SCT060 32/23 A3003 RMK AO2
KDKR 202310Z AUTO 00000KT 10SM CLR 33/23 A3003 RMK AO2 LTG DSNT SW
KDKR 202250Z AUTO 06003KT 10SM FEW050 35/24 A3003 RMK AO2
KDKR 202230Z AUTO 00000KT 10SM FEW001 FEW043 BKN050 34/23 A3004 RMK AO2
KDKR 202210Z AUTO 00000KT 10SM FEW055 34/23 A3004 RMK AO2
KDKR 202150Z AUTO 00000KT 10SM CLR 35/23 A3005 RMK AO2
KDKR 202130Z AUTO 00000KT 10SM CLR 34/23 A3006 RMK AO2
KDKR 202110Z AUTO 00000KT 10SM CLR 34/23 A3007 RMK AO2
KDKR 202050Z AUTO 00000KT 10SM CLR 34/23 A3007 RMK AO2
KDKR 202030Z AUTO 00000KT 10SM CLR 34/24 A3008 RMK AO2
KDKR 202010Z AUTO 00000KT 10SM FEW041 34/23 A3009 RMK AO2
KDKR 201950Z AUTO 00000KT 10SM FEW001 SCT039 34/23 A3010 RMK AO2
KDKR 201930Z AUTO 00000KT 10SM SCT001 SCT016 33/22 A3011 RMK AO2
KDKR 201910Z AUTO 00000KT 10SM SCT001 BKN016 33/23 A3011 RMK AO2
KDKR 201850Z AUTO 00000KT 10SM SCT001 BKN016 33/23 A3012 RMK AO2
KDKR 201830Z AUTO 00000KT 10SM SCT001 33/23 A3013 RMK AO2
KDKR 201810Z AUTO 00000KT 10SM SCT001 SCT016 33/24 A3014 RMK AO2
KDKR 201750Z AUTO 00000KT 10SM FEW003 FEW050 SCT100 32/24 A3014 RMK AO2
KDKR 201730Z AUTO 00000KT 10SM SCT001 SCT036 BKN060 32/24 A3015 RMK AO2
KDKR 201710Z AUTO 00000KT 10SM FEW001 FEW033 32/24 A3016 RMK AO2
KDKR 201650Z AUTO 00000KT 10SM FEW003 31/24 A3017 RMK AO2
KDKR 201630Z AUTO 00000KT 10SM FEW030 31/24 A3017 RMK AO2
KDKR 201610Z AUTO 00000KT 10SM FEW028 30/24 A3017 RMK AO2
KDKR 201550Z AUTO 25006KT 10SM FEW001 FEW090 30/25 A3017 RMK AO2
KDKR 201530Z AUTO 23006KT 10SM FEW001 30/25 A3018 RMK AO2
KDKR 201510Z AUTO 25006KT 10SM CLR 29/24 A3018 RMK AO2
KDKR 201450Z AUTO 24007KT 10SM CLR 29/24 A3018 RMK AO2
KDKR 201430Z AUTO 24008KT 10SM CLR 29/25 A3018 RMK AO2